createdAt,value
2022-09-12T00:00:31.790Z,100036.50
2022-09-12T00:02:55.167Z,100030.31
2022-09-12T00:05:18.403Z,100023.59
2022-09-12T00:07:41.673Z,100022.28
2022-09-12T00:10:07.646Z,100014.19
2022-09-12T00:12:30.806Z,100021.72
2022-09-12T00:14:53.961Z,100033.28
2022-09-12T00:17:17.155Z,100025.06
2022-09-12T00:19:40.297Z,100035.28
2022-09-12T00:22:03.528Z,100025.69
2022-09-12T00:24:26.717Z,100028.63
2022-09-12T00:26:51.310Z,100037.66
2022-09-12T00:29:15.988Z,100029.00
2022-09-12T00:31:39.575Z,100050.16
2022-09-12T00:34:03.121Z,100044.72
2022-09-12T00:36:26.505Z,100062.94
2022-09-12T00:38:49.752Z,100049.19
2022-09-12T00:41:15.194Z,100059.31
2022-09-12T00:43:40.668Z,100066.16
2022-09-12T00:46:05.006Z,100061.84
2022-09-12T00:48:29.705Z,100069.63
2022-09-12T00:50:52.867Z,100082.69
2022-09-12T00:53:16.021Z,100072.34
2022-09-12T00:55:40.235Z,100097.38
2022-09-12T00:58:04.961Z,100109.88
2022-09-12T01:00:29.968Z,100114.09
2022-09-12T01:02:54.743Z,100126.75
2022-09-12T01:05:18.061Z,100129.44
2022-09-12T01:07:41.278Z,100126.75
2022-09-12T01:10:05.518Z,100129.44
2022-09-12T01:12:28.699Z,100125.22
2022-09-12T01:14:51.925Z,100111.91
2022-09-12T01:17:16.890Z,100113.03
2022-09-12T01:20:16.481Z,100108.84
2022-09-12T01:22:55.180Z,100101.59
2022-09-12T01:25:21.454Z,100094.91
2022-09-12T01:27:52.079Z,100099.78
2022-09-12T01:30:27.809Z,100095.31
2022-09-12T01:33:09.709Z,100078.88
2022-09-12T01:35:34.150Z,100096.31
2022-09-12T01:38:00.810Z,100098.31
2022-09-12T01:40:25.361Z,100085.44
2022-09-12T01:42:52.187Z,100092.00
2022-09-12T01:45:17.986Z,100100.22
2022-09-12T01:47:43.051Z,100101.88
2022-09-12T01:50:08.074Z,100096.69
2022-09-12T01:52:33.465Z,100103.81
2022-09-12T01:54:58.727Z,100105.53
2022-09-12T01:57:25.070Z,100098.22
2022-09-12T01:59:49.472Z,100093.09
2022-09-12T02:02:13.687Z,100091.19
2022-09-12T02:04:40.109Z,100083.75
2022-09-12T02:07:05.059Z,100089.53
2022-09-12T02:09:30.518Z,100087.59
2022-09-12T02:11:55.611Z,100085.50
2022-09-12T02:14:20.402Z,100082.56
2022-09-12T02:16:44.364Z,100089.63
2022-09-12T02:19:09.990Z,100078.09
2022-09-12T02:21:34.513Z,100086.25
2022-09-12T02:23:58.449Z,100080.31
2022-09-12T02:26:22.677Z,100089.81
2022-09-12T02:28:48.905Z,100086.44
2022-09-12T02:31:15.427Z,100072.69
2022-09-12T02:33:40.372Z,100074.94
2022-09-12T02:36:07.127Z,100090.81
2022-09-12T02:38:34.374Z,100086.59
2022-09-12T02:40:57.551Z,100083.78
2022-09-12T02:43:20.794Z,100085.47
2022-09-12T02:45:43.965Z,100092.09
2022-09-12T02:48:08.794Z,100079.16
2022-09-12T02:50:31.933Z,100081.25
2022-09-12T02:52:59.732Z,100074.34
2022-09-12T02:55:24.790Z,100089.34
2022-09-12T02:57:48.024Z,100091.75
2022-09-12T03:00:12.176Z,100101.06
2022-09-12T03:02:43.633Z,100085.56
2022-09-12T03:05:15.127Z,100088.06
2022-09-12T03:07:47.554Z,100073.53
2022-09-12T03:10:13.561Z,100069.72
2022-09-12T03:12:44.197Z,100074.63
2022-09-12T03:15:19.950Z,100073.38
2022-09-12T03:17:53.352Z,100075.34
2022-09-12T03:20:18.021Z,100080.47
2022-09-12T03:22:47.084Z,100087.66
2022-09-12T03:25:14.775Z,100069.34
2022-09-12T03:27:38.593Z,100067.06
2022-09-12T03:30:03.222Z,100049.31
2022-09-12T03:32:40.773Z,100046.28
2022-09-12T03:35:04.187Z,100043.78
2022-09-12T03:37:27.343Z,100051.94
2022-09-12T03:39:50.533Z,100045.31
2022-09-12T03:42:13.722Z,100048.53
2022-09-12T03:44:36.985Z,100038.84
2022-09-12T03:47:01.564Z,100044.22
2022-09-12T03:49:25.030Z,100052.25
2022-09-12T03:51:48.199Z,100055.31
2022-09-12T03:54:11.489Z,100051.66
2022-09-12T03:56:34.650Z,100055.63
2022-09-12T03:58:57.953Z,100054.50
2022-09-12T04:01:21.209Z,100062.28
2022-09-12T04:03:46.624Z,100068.63
2022-09-12T04:06:10.198Z,100065.22
2022-09-12T04:08:33.415Z,100073.69
2022-09-12T04:10:56.797Z,100072.91
2022-09-12T04:13:20.053Z,100075.34
2022-09-12T04:15:43.194Z,100091.44
2022-09-12T04:18:06.671Z,100096.78
2022-09-12T04:20:31.176Z,100096.81
2022-09-12T04:22:54.202Z,100086.66
2022-09-12T04:25:17.530Z,100099.03
2022-09-12T04:27:40.818Z,100103.00
2022-09-12T04:30:04.209Z,100090.72
2022-09-12T04:32:27.441Z,100078.56
2022-09-12T04:34:52.392Z,100098.69
2022-09-12T04:37:17.011Z,100096.19
2022-09-12T04:39:41.312Z,100083.38
2022-09-12T04:42:04.898Z,100081.50
2022-09-12T04:44:28.098Z,100092.09
2022-09-12T04:46:51.242Z,100104.84
2022-09-12T04:49:14.516Z,100098.28
2022-09-12T04:51:38.607Z,100098.91
2022-09-12T04:54:04.277Z,100100.78
2022-09-12T04:56:27.565Z,100087.28
2022-09-12T04:58:50.811Z,100083.75
2022-09-12T05:01:15.328Z,100089.13
2022-09-12T05:03:39.105Z,100087.59
2022-09-12T05:06:03.618Z,100093.13
2022-09-12T05:08:26.951Z,100101.25
2022-09-12T05:10:51.489Z,100107.34
2022-09-12T05:13:14.710Z,100093.13
2022-09-12T05:15:37.858Z,100106.97
2022-09-12T05:18:01.139Z,100101.88
2022-09-12T05:20:24.263Z,100109.03
2022-09-12T05:22:47.519Z,100097.63
2022-09-12T05:25:11.149Z,100097.06
2022-09-12T05:27:35.718Z,100097.88
2022-09-12T05:29:59.149Z,100098.28
2022-09-12T05:32:22.374Z,100101.19
2022-09-12T05:34:45.526Z,100104.28
2022-09-12T05:37:08.978Z,100109.28
2022-09-12T05:39:32.155Z,100105.53
2022-09-12T05:41:56.488Z,100106.00
2022-09-12T05:44:21.106Z,100101.38
2022-09-12T05:46:46.682Z,100104.28
2022-09-12T05:49:11.559Z,100103.75
2022-09-12T05:51:35.590Z,100097.22
2022-09-12T05:54:00.532Z,100110.88
2022-09-12T05:56:25.302Z,100097.84
2022-09-12T05:58:49.493Z,100105.66
2022-09-12T06:01:14.952Z,100108.97
2022-09-12T06:03:40.832Z,100111.63
2022-09-12T06:06:05.169Z,100106.88
2022-09-12T06:08:28.162Z,100105.44
2022-09-12T06:10:51.298Z,100105.91
2022-09-12T06:13:14.448Z,100112.28
2022-09-12T06:15:37.699Z,100107.75
2022-09-12T06:18:02.282Z,100111.88
2022-09-12T06:20:25.197Z,100102.63
2022-09-12T06:22:48.451Z,100103.50
2022-09-12T06:25:11.614Z,100107.78
2022-09-12T06:27:34.754Z,100108.28
2022-09-12T06:29:57.945Z,100111.81
2022-09-12T06:32:21.262Z,100114.19
2022-09-12T06:34:47.735Z,100116.00
2022-09-12T06:37:11.317Z,100121.25
2022-09-12T06:39:36.626Z,100105.88
2022-09-12T06:41:59.778Z,100106.84
2022-09-12T06:44:32.440Z,100121.22
2022-09-12T06:46:55.610Z,100104.81
2022-09-12T06:49:18.858Z,100107.66
2022-09-12T06:51:43.413Z,100108.88
2022-09-12T06:54:06.732Z,100097.22
2022-09-12T06:56:29.882Z,100116.25
2022-09-12T06:58:53.642Z,100109.03
2022-09-12T07:01:17.808Z,100100.97
2022-09-12T07:03:41.458Z,100109.72
2022-09-12T07:06:05.788Z,100097.53
2022-09-12T07:08:31.873Z,100103.44
2022-09-12T07:10:55.061Z,100111.94
2022-09-12T07:13:18.242Z,100105.66
2022-09-12T07:15:41.438Z,100102.28
2022-09-12T07:18:04.765Z,100099.75
2022-09-12T07:20:27.903Z,100101.91
2022-09-12T07:22:52.186Z,100101.81
2022-09-12T07:25:16.883Z,100107.78
2022-09-12T07:27:40.085Z,100109.03
2022-09-12T07:30:03.285Z,100105.50
2022-09-12T07:32:26.550Z,100106.41
2022-09-12T07:34:50.020Z,100108.50
2022-09-12T07:37:13.241Z,100109.94
2022-09-12T07:39:36.406Z,100108.75
2022-09-12T07:42:01.562Z,100111.88
2022-09-12T07:44:27.033Z,100105.03
2022-09-12T07:46:50.777Z,100103.00
2022-09-12T07:49:14.282Z,100095.16
2022-09-12T07:51:37.435Z,100102.38
2022-09-12T07:54:00.631Z,100097.03
2022-09-12T07:56:29.455Z,100095.44
2022-09-12T07:58:56.032Z,100096.81
2022-09-12T08:01:19.976Z,100096.47
2022-09-12T08:03:43.533Z,100091.41
2022-09-12T08:06:07.340Z,100094.75
2022-09-12T08:08:30.582Z,100090.06
2022-09-12T08:10:58.434Z,100092.25
2022-09-12T08:13:21.688Z,100091.13
2022-09-12T08:15:46.295Z,100092.88
2022-09-12T08:18:09.568Z,100092.91
2022-09-12T08:20:33.006Z,100092.22
2022-09-12T08:22:56.538Z,100088.84
2022-09-12T08:25:19.692Z,100080.44
2022-09-12T08:27:43.585Z,100082.44
2022-09-12T08:30:07.690Z,100082.75
2022-09-12T08:32:32.171Z,100080.91
2022-09-12T08:34:55.120Z,100075.38
2022-09-12T08:37:18.353Z,100079.53
2022-09-12T08:39:42.033Z,100078.31
2022-09-12T08:42:06.246Z,100083.06
2022-09-12T08:44:56.581Z,100074.69
2022-09-12T08:47:23.138Z,100068.69
2022-09-12T08:49:51.609Z,100069.06
2022-09-12T08:52:18.084Z,100067.03
2022-09-12T08:54:41.247Z,100060.66
2022-09-12T08:57:05.016Z,100058.28
2022-09-12T08:59:28.289Z,100064.00
2022-09-12T09:01:53.886Z,100060.03
2022-09-12T09:04:29.489Z,100051.56
2022-09-12T09:07:20.591Z,100058.00
2022-09-12T09:09:54.825Z,100062.75
2022-09-12T09:12:20.882Z,100059.72
2022-09-12T09:14:55.437Z,100058.38
2022-09-12T09:17:25.262Z,100054.34
2022-09-12T09:19:51.149Z,100051.00
2022-09-12T09:22:15.504Z,100042.41
2022-09-12T09:24:41.322Z,100038.72
2022-09-12T09:27:23.570Z,100045.78
2022-09-12T09:29:52.313Z,100041.41
2022-09-12T09:32:18.370Z,100036.38
2022-09-12T09:34:41.803Z,100028.31
2022-09-12T09:37:09.624Z,100027.16
2022-09-12T09:39:42.503Z,100030.16
2022-09-12T09:42:18.074Z,100031.50
2022-09-12T09:44:41.314Z,100031.50
2022-09-12T09:47:05.346Z,100023.44
2022-09-12T09:49:29.325Z,100027.84
2022-09-12T09:51:52.488Z,100027.66
2022-09-12T09:54:19.970Z,100016.88
2022-09-12T09:56:44.503Z,100019.09
2022-09-12T09:59:12.874Z,100013.00
2022-09-12T10:01:36.114Z,100018.75
2022-09-12T10:03:59.922Z,100019.25
2022-09-12T10:06:28.065Z,100022.44
2022-09-12T10:08:51.580Z,100019.94
2022-09-12T10:11:19.750Z,100021.28
2022-09-12T10:13:53.259Z,100024.66
2022-09-12T10:16:20.566Z,100021.09
2022-09-12T10:18:43.984Z,100018.41
2022-09-12T10:21:18.943Z,100020.09
2022-09-12T10:23:42.224Z,100015.22
2022-09-12T10:26:06.593Z,100017.06
2022-09-12T10:28:32.126Z,100019.78
2022-09-12T10:30:56.842Z,100023.63
2022-09-12T10:33:20.435Z,100021.78
2022-09-12T10:35:44.976Z,100030.53
2022-09-12T10:38:08.461Z,100025.16
2022-09-12T10:40:32.813Z,100012.69
2022-09-12T10:42:56.532Z,100014.38
2022-09-12T10:45:24.783Z,100007.66
2022-09-12T10:47:49.419Z,100021.44
2022-09-12T10:50:22.812Z,100020.78
2022-09-12T10:52:46.329Z,100030.34
2022-09-12T10:55:14.708Z,100023.63
2022-09-12T10:57:52.368Z,100017.56
2022-09-12T11:00:17.553Z,100017.91
2022-09-12T11:02:51.895Z,100025.69
2022-09-12T11:05:20.652Z,100027.38
2022-09-12T11:07:47.309Z,100029.03
2022-09-12T11:10:35.630Z,100012.88
2022-09-12T11:13:07.025Z,100025.50
2022-09-12T11:15:42.712Z,100014.56
2022-09-12T11:18:12.203Z,100022.50
2022-09-12T11:20:41.800Z,100020.47
2022-09-12T11:23:41.973Z,100014.72
2022-09-12T11:26:08.532Z,100003.59
2022-09-12T11:28:35.831Z,100011.69
2022-09-12T11:31:08.150Z,100013.22
2022-09-12T11:33:42.713Z,100016.59
2022-09-12T11:36:06.427Z,100025.50
2022-09-12T11:38:53.500Z,100028.19
2022-09-12T11:41:18.391Z,100020.59
2022-09-12T11:43:43.044Z,100019.44
2022-09-12T11:46:10.761Z,100015.56
2022-09-12T11:48:39.930Z,100018.25
2022-09-12T11:51:04.653Z,100002.94
2022-09-12T11:53:29.654Z,100005.47
2022-09-12T11:55:56.099Z,99989.13
2022-09-12T11:58:19.555Z,100009.00
2022-09-12T12:00:44.198Z,99999.06
2022-09-12T12:03:09.991Z,99988.44
2022-09-12T12:05:37.247Z,100003.59
2022-09-12T12:08:01.119Z,100004.44
2022-09-12T12:10:31.067Z,100010.84
2022-09-12T12:12:54.914Z,100017.09
2022-09-12T12:15:18.256Z,100022.47
2022-09-12T12:17:41.437Z,100015.03
2022-09-12T12:20:08.586Z,100019.59
2022-09-12T12:22:33.722Z,100015.91
2022-09-12T12:25:02.777Z,100009.00
2022-09-12T12:27:45.727Z,100000.72
2022-09-12T12:30:34.173Z,100005.97
2022-09-12T12:33:00.705Z,99995.19
2022-09-12T12:35:39.669Z,100008.66
2022-09-12T12:38:04.339Z,100004.25
2022-09-12T12:40:29.022Z,100002.59
2022-09-12T12:43:06.123Z,100006.31
2022-09-12T12:45:48.795Z,100008.16
2022-09-12T12:48:12.782Z,100017.25
2022-09-12T12:50:36.251Z,100011.84
2022-09-12T12:53:00.157Z,100018.94
2022-09-12T12:55:26.383Z,100011.69
2022-09-12T12:57:50.162Z,100020.44
2022-09-12T13:00:29.929Z,100013.38
2022-09-12T13:02:56.121Z,100002.59
2022-09-12T13:05:21.343Z,100013.38
2022-09-12T13:07:44.765Z,100011.69
2022-09-12T13:10:08.666Z,100005.13
2022-09-12T13:12:34.831Z,100011.69
2022-09-12T13:14:58.500Z,100016.06
2022-09-12T13:17:26.106Z,100025.81
2022-09-12T13:19:49.787Z,100025.81
2022-09-12T13:22:13.034Z,100024.00
2022-09-12T13:24:36.745Z,100026.69
2022-09-12T13:26:59.998Z,100026.69
2022-09-12T13:29:25.420Z,100025.66
2022-09-12T13:31:49.980Z,100022.13
2022-09-12T13:34:12.962Z,100026.50
2022-09-12T13:36:51.545Z,100026.50
2022-09-12T13:39:16.922Z,100016.75
2022-09-12T13:42:19.881Z,100018.41
2022-09-12T13:44:45.607Z,100023.81
2022-09-12T13:47:09.350Z,100021.94
2022-09-12T13:49:34.324Z,100026.50
2022-09-12T13:52:00.131Z,100031.91
2022-09-12T13:54:24.646Z,100018.41
2022-09-12T13:56:48.643Z,100021.13
2022-09-12T13:59:12.452Z,100017.59
2022-09-12T14:01:40.959Z,100022.78
2022-09-12T14:04:26.856Z,100032.59
2022-09-12T14:06:51.474Z,100024.31
2022-09-12T14:09:15.000Z,100024.31
2022-09-12T14:11:40.106Z,100027.84
2022-09-12T14:14:03.635Z,100027.84
2022-09-12T14:16:29.038Z,100031.38
2022-09-12T14:18:54.365Z,100024.16
2022-09-12T14:21:28.634Z,100025.81
2022-09-12T14:23:51.844Z,100029.34
2022-09-12T14:26:15.437Z,100031.22
2022-09-12T14:28:40.907Z,100033.91
2022-09-12T14:31:06.577Z,100044.69
2022-09-12T14:33:30.093Z,100040.16
2022-09-12T14:36:08.890Z,100033.91
2022-09-12T14:38:35.312Z,100028.88
2022-09-12T14:41:01.141Z,100030.38
2022-09-12T14:43:26.401Z,100040.16
2022-09-12T14:45:55.968Z,100023.63
2022-09-12T14:48:19.470Z,100034.94
2022-09-12T14:50:42.721Z,100037.63
2022-09-12T14:53:08.159Z,100037.63
2022-09-12T14:55:32.141Z,100030.53
2022-09-12T14:58:08.404Z,100028.88
2022-09-12T15:00:31.666Z,100034.06
2022-09-12T15:02:54.854Z,100033.06
2022-09-12T15:05:26.580Z,100038.28
2022-09-12T15:07:54.809Z,100026.47
2022-09-12T15:10:22.150Z,100029.19
2022-09-12T15:12:45.440Z,100031.88
2022-09-12T15:15:14.778Z,100016.41
2022-09-12T15:17:38.041Z,100025.50
2022-09-12T15:20:01.331Z,100024.47
2022-09-12T15:22:25.366Z,100019.06
2022-09-12T15:24:49.466Z,100019.25
2022-09-12T15:27:14.153Z,100021.97
2022-09-12T15:29:37.338Z,100023.63
2022-09-12T15:32:00.595Z,100026.31
2022-09-12T15:34:23.841Z,100028.19
2022-09-12T15:36:47.062Z,100018.41
2022-09-12T15:39:10.430Z,100027.34
2022-09-12T15:41:35.622Z,100021.09
2022-09-12T15:44:01.198Z,100024.47
2022-09-12T15:46:24.400Z,100018.25
2022-09-12T15:48:47.705Z,100021.97
2022-09-12T15:51:15.449Z,100020.25
2022-09-12T15:53:39.291Z,100024.81
2022-09-12T15:56:02.737Z,100024.81
2022-09-12T15:58:26.016Z,100017.91
2022-09-12T16:00:50.629Z,100017.06
2022-09-12T16:03:19.275Z,100022.28
2022-09-12T16:05:42.718Z,100019.75
2022-09-12T16:08:06.027Z,100017.91
2022-09-12T16:10:31.190Z,100020.59
2022-09-12T16:12:54.400Z,100024.31
2022-09-12T16:15:19.763Z,100028.69
2022-09-12T16:17:44.326Z,100028.53
2022-09-12T16:20:08.863Z,100034.06
2022-09-12T16:22:32.213Z,100032.59
2022-09-12T16:24:55.444Z,100031.72
2022-09-12T16:27:19.679Z,100029.69
2022-09-12T16:29:42.994Z,100027.84
2022-09-12T16:32:06.575Z,100026.84
2022-09-12T16:34:31.169Z,100029.34
2022-09-12T16:36:54.461Z,100026.66
2022-09-12T16:39:17.775Z,100025.00
2022-09-12T16:41:42.716Z,100031.22
2022-09-12T16:44:05.935Z,100026.66
2022-09-12T16:46:29.678Z,100025.00
2022-09-12T16:48:53.993Z,100029.34
2022-09-12T16:51:20.233Z,100040.97
2022-09-12T16:53:43.511Z,100038.47
2022-09-12T16:56:07.123Z,100029.88
2022-09-12T16:58:33.223Z,100039.47
2022-09-12T17:01:01.499Z,100038.47
2022-09-12T17:03:24.867Z,100036.44
2022-09-12T17:05:48.071Z,100036.78
2022-09-12T17:08:12.712Z,100041.50
2022-09-12T17:10:35.898Z,100042.84
2022-09-12T17:12:59.309Z,100045.03
2022-09-12T17:15:22.523Z,100036.91
2022-09-12T17:17:47.133Z,100042.78
2022-09-12T17:20:10.262Z,100040.47
2022-09-12T17:22:34.871Z,100047.03
2022-09-12T17:24:59.451Z,100044.66
2022-09-12T17:27:22.678Z,100036.06
2022-09-12T17:29:45.982Z,100036.56
2022-09-12T17:32:09.289Z,100033.03
2022-09-12T17:34:32.718Z,100035.56
2022-09-12T17:36:55.994Z,100035.56
2022-09-12T17:39:19.198Z,100047.66
2022-09-12T17:41:44.020Z,100047.31
2022-09-12T17:44:07.684Z,100040.94
2022-09-12T17:46:33.041Z,100048.19
2022-09-12T17:48:57.101Z,100050.19
2022-09-12T17:51:20.331Z,100054.22
2022-09-12T17:53:43.624Z,100066.84
2022-09-12T17:56:07.245Z,100073.00
2022-09-12T17:58:31.842Z,100067.03
2022-09-12T18:01:24.386Z,100062.97
2022-09-12T18:03:48.102Z,100069.25
2022-09-12T18:06:11.469Z,100058.63
2022-09-12T18:08:34.681Z,100076.09
2022-09-12T18:11:04.849Z,100085.44
2022-09-12T18:13:28.092Z,100066.13
2022-09-12T18:15:52.699Z,100071.16
2022-09-12T18:18:15.993Z,100068.28
2022-09-12T18:20:39.351Z,100066.28
2022-09-12T18:23:02.590Z,100078.09
2022-09-12T18:25:26.038Z,100070.00
2022-09-12T18:27:49.251Z,100073.53
2022-09-12T18:30:22.168Z,100077.00
2022-09-12T18:32:46.903Z,100079.69
2022-09-12T18:35:10.515Z,100080.22
2022-09-12T18:37:33.774Z,100083.59
2022-09-12T18:39:57.946Z,100092.56
2022-09-12T18:42:21.215Z,100097.13
2022-09-12T18:44:44.487Z,100097.28
2022-09-12T18:47:08.734Z,100098.59
2022-09-12T18:49:33.443Z,100097.88
2022-09-12T18:51:57.099Z,100101.16
2022-09-12T18:54:20.667Z,100094.88
2022-09-12T18:56:45.661Z,100096.06
2022-09-12T18:59:08.930Z,100102.06
2022-09-12T19:01:32.896Z,100091.84
2022-09-12T19:03:56.394Z,100094.25
2022-09-12T19:06:21.651Z,100091.63
2022-09-12T19:08:45.032Z,100096.84
2022-09-12T19:11:08.610Z,100093.09
2022-09-12T19:13:31.914Z,100089.97
2022-09-12T19:15:55.231Z,100093.00
2022-09-12T19:18:18.572Z,100100.22
2022-09-12T19:20:41.857Z,100108.91
2022-09-12T19:23:06.536Z,100105.72
2022-09-12T19:25:30.066Z,100105.06
2022-09-12T19:27:53.292Z,100093.13
2022-09-12T19:30:16.704Z,100097.34
2022-09-12T19:32:40.055Z,100098.50
2022-09-12T19:35:03.264Z,100096.69
2022-09-12T19:37:26.562Z,100097.66
2022-09-12T19:39:51.228Z,100094.84
2022-09-12T19:42:14.524Z,100101.19
2022-09-12T19:44:38.290Z,100104.66
2022-09-12T19:47:01.644Z,100100.56
2022-09-12T19:49:24.887Z,100100.75
2022-09-12T19:51:48.166Z,100102.31
2022-09-12T19:54:11.402Z,100102.19
2022-09-12T19:56:36.008Z,100100.97
2022-09-12T19:58:59.506Z,100097.13
2022-09-12T20:01:24.909Z,100100.69
2022-09-12T20:03:49.073Z,100106.94
2022-09-12T20:06:13.164Z,100105.06
2022-09-12T20:08:37.273Z,100109.56
2022-09-12T20:11:00.482Z,100115.63
2022-09-12T20:13:25.226Z,100108.09
2022-09-12T20:15:48.458Z,100114.28
2022-09-12T20:18:11.696Z,100116.88
2022-09-12T20:20:34.900Z,100124.25
2022-09-12T20:22:58.202Z,100126.00
2022-09-12T20:25:21.409Z,100130.09
2022-09-12T20:27:44.609Z,100127.72
2022-09-12T20:30:10.862Z,100127.00
2022-09-12T20:32:34.170Z,100128.34
2022-09-12T20:34:57.386Z,100132.00
2022-09-12T20:37:21.143Z,100127.50
2022-09-12T20:39:47.829Z,100123.63
2022-09-12T20:42:13.552Z,100121.97
2022-09-12T20:44:36.778Z,100111.69
2022-09-12T20:47:01.597Z,100124.31
2022-09-12T20:49:24.848Z,100123.84
2022-09-12T20:51:48.768Z,100121.34
2022-09-12T20:54:11.961Z,100121.91
2022-09-12T20:56:36.209Z,100123.47
2022-09-12T20:58:59.690Z,100123.78
2022-09-12T21:01:23.099Z,100118.66
2022-09-12T21:03:47.870Z,100123.03
2022-09-12T21:06:12.556Z,100112.16
2022-09-12T21:08:35.643Z,100123.47
2022-09-12T21:10:59.024Z,100124.47
2022-09-12T21:13:22.210Z,100132.09
2022-09-12T21:15:45.370Z,100120.53
2022-09-12T21:18:08.661Z,100126.06
2022-09-12T21:20:33.197Z,100127.03
2022-09-12T21:22:56.476Z,100119.50
2022-09-12T21:25:19.662Z,100121.91
2022-09-12T21:27:42.842Z,100114.00
2022-09-12T21:30:06.874Z,100105.94
2022-09-12T21:32:34.631Z,100120.94
2022-09-12T21:34:57.762Z,100105.88
2022-09-12T21:37:22.322Z,100117.38
2022-09-12T21:39:45.602Z,100105.47
2022-09-12T21:42:08.917Z,100115.31
2022-09-12T21:44:32.177Z,100107.56
2022-09-12T21:46:55.326Z,100111.75
2022-09-12T21:49:18.627Z,100113.28
2022-09-12T21:51:41.898Z,100103.56
2022-09-12T21:54:06.830Z,100120.28
2022-09-12T21:56:30.115Z,100111.97
2022-09-12T21:58:53.257Z,100097.53
2022-09-12T22:01:16.457Z,100106.47
2022-09-12T22:03:39.787Z,100105.81
2022-09-12T22:06:04.021Z,100103.13
2022-09-12T22:08:27.264Z,100102.88
2022-09-12T22:10:51.800Z,100103.03
2022-09-12T22:13:15.082Z,100110.19
2022-09-12T22:15:41.096Z,100110.56
2022-09-12T22:18:05.022Z,100111.56
2022-09-12T22:20:28.171Z,100108.97
2022-09-12T22:23:10.873Z,100112.09
2022-09-12T22:25:34.059Z,100112.78
2022-09-12T22:27:58.669Z,100111.72
2022-09-12T22:30:22.221Z,100111.25
2022-09-12T22:32:45.544Z,100107.72
2022-09-12T22:35:09.264Z,100104.22
2022-09-12T22:37:32.541Z,100105.72
2022-09-12T22:39:55.951Z,100110.66
2022-09-12T22:42:19.198Z,100122.56
2022-09-12T22:44:43.719Z,100125.38
2022-09-12T22:47:07.189Z,100135.59
2022-09-12T22:49:31.005Z,100140.66
2022-09-12T22:51:54.299Z,100136.59
2022-09-12T22:54:17.461Z,100138.88
2022-09-12T22:56:40.595Z,100141.56
2022-09-12T22:59:03.789Z,100148.34
2022-09-12T23:01:28.345Z,100152.63
2022-09-12T23:03:51.449Z,100156.75
2022-09-12T23:06:14.726Z,100149.84
2022-09-12T23:08:38.086Z,100147.34
2022-09-12T23:11:02.534Z,100149.56
2022-09-12T23:13:25.457Z,100145.03
2022-09-12T23:15:49.838Z,100146.09
2022-09-12T23:18:14.270Z,100149.91
2022-09-12T23:20:37.432Z,100154.13
2022-09-12T23:23:00.595Z,100140.78
2022-09-12T23:25:24.255Z,100137.56
2022-09-12T23:27:48.461Z,100132.50
2022-09-12T23:30:13.057Z,100138.16
2022-09-12T23:32:36.602Z,100142.03
2022-09-12T23:35:01.202Z,100128.63
2022-09-12T23:37:24.153Z,100137.19
2022-09-12T23:39:47.461Z,100135.88
2022-09-12T23:42:10.602Z,100141.84
2022-09-12T23:44:33.879Z,100136.25
2022-09-12T23:46:57.002Z,100137.91
2022-09-12T23:49:20.198Z,100134.19
2022-09-12T23:51:44.860Z,100137.78
2022-09-12T23:54:08.701Z,100135.81
2022-09-12T23:56:31.881Z,100139.34
2022-09-12T23:58:55.084Z,100149.44
